Time;durP1;ratioP1;P1;durP2;ratioP2;P2;SDS_P1;SDS_P2;PMS_P1;PMS_P2;Temp;Humidity;BMP_temperature;BMP_pressure;BME280_temperature;BME280_humidity;BME280_pressure;Samples;Min_cycle;Max_cycle;Signal;HPM_P1;HPM_P2
2022/03/02 00:00:05;;;;;;;11.32;7.20;;;77.20;2227.20;;;;;;5060706;28;20068;-74
2022/03/02 00:02:37;;;;;;;16.33;8.45;;;77.20;2227.20;;;;;;5065305;28;20021;-74
2022/03/02 00:05:04;;;;;;;15.75;8.40;;;77.20;2227.20;;;;;;5060273;28;20039;-74
2022/03/02 00:07:30;;;;;;;13.80;8.18;;;77.20;2227.20;;;;;;5063696;28;20063;-74
2022/03/02 00:09:56;;;;;;;15.38;8.60;;;77.30;2227.20;;;;;;5062411;28;20063;-74
2022/03/02 00:12:21;;;;;;;14.15;9.30;;;77.20;2227.20;;;;;;5061687;28;20503;-75
2022/03/02 00:14:47;;;;;;;17.10;8.35;;;77.20;2227.20;;;;;;5061987;28;20028;-74
2022/03/02 00:17:13;;;;;;;12.60;7.78;;;77.20;2227.20;;;;;;5065716;28;20054;-74
2022/03/02 00:19:40;;;;;;;14.98;8.18;;;77.20;2227.20;;;;;;5061861;28;20495;-74
2022/03/02 00:22:07;;;;;;;11.70;7.72;;;77.20;2227.20;;;;;;5061351;28;20035;-74
2022/03/02 00:24:35;;;;;;;12.13;7.70;;;77.20;2227.20;;;;;;5068328;28;20040;-75
2022/03/02 00:27:02;;;;;;;12.45;7.38;;;77.20;2227.20;;;;;;5065090;28;20017;-74
2022/03/02 00:29:28;;;;;;;16.40;8.52;;;77.10;2227.20;;;;;;5069659;28;20017;-74
2022/03/02 00:31:56;;;;;;;13.70;8.40;;;77.10;2227.20;;;;;;5056776;28;20032;-74
2022/03/02 00:34:22;;;;;;;12.90;8.32;;;77.10;2227.20;;;;;;5061063;28;20062;-75
2022/03/02 00:36:48;;;;;;;14.48;8.95;;;77.10;2227.20;;;;;;5066752;28;20491;-74
2022/03/02 00:39:14;;;;;;;14.90;8.88;;;77.10;2227.20;;;;;;5064470;28;20499;-74
2022/03/02 00:41:40;;;;;;;16.00;9.27;;;77.10;2227.20;;;;;;5064312;28;20033;-75
2022/03/02 00:44:06;;;;;;;16.40;9.32;;;77.20;2227.20;;;;;;5057659;28;20033;-75
2022/03/02 00:46:33;;;;;;;14.93;10.05;;;77.20;2227.20;;;;;;5065650;28;20052;-74
2022/03/02 00:49:00;;;;;;;12.65;8.07;;;77.20;2227.20;;;;;;5064167;28;20030;-74
2022/03/02 00:51:27;;;;;;;11.98;7.97;;;77.10;2227.20;;;;;;5060684;28;20028;-75
2022/03/02 00:53:54;;;;;;;18.35;8.63;;;77.20;2227.20;;;;;;5062281;28;20021;-75
2022/03/02 00:56:21;;;;;;;13.77;8.65;;;77.20;2227.20;;;;;;5060573;28;20013;-74
2022/03/02 00:58:47;;;;;;;16.08;9.10;;;77.20;2227.20;;;;;;5063659;28;20021;-74
2022/03/02 01:01:19;;;;;;;17.73;9.40;;;77.10;2227.20;;;;;;5061960;28;20032;-75
2022/03/02 01:03:45;;;;;;;10.73;7.30;;;77.10;2227.20;;;;;;5061758;28;20024;-75
2022/03/02 01:06:10;;;;;;;14.70;7.78;;;77.10;2227.20;;;;;;5060942;28;20032;-75
2022/03/02 01:08:36;;;;;;;15.18;8.65;;;77.10;2227.20;;;;;;5061853;28;20047;-75
2022/03/02 01:11:02;;;;;;;13.70;8.90;;;77.10;2227.20;;;;;;5062489;28;20399;-75
2022/03/02 01:13:28;;;;;;;15.50;9.00;;;77.10;2227.20;;;;;;5062384;28;20028;-75
2022/03/02 01:15:54;;;;;;;17.33;9.75;;;77.10;2227.20;;;;;;5062278;28;20025;-75
2022/03/02 01:18:20;;;;;;;15.30;8.75;;;77.20;2227.20;;;;;;5062064;28;20571;-75
2022/03/02 01:20:45;;;;;;;17.42;8.65;;;77.10;2227.20;;;;;;5063164;28;20112;-74
2022/03/02 01:23:11;;;;;;;14.68;8.32;;;77.20;2227.20;;;;;;5061603;28;20037;-75
2022/03/02 01:25:37;;;;;;;14.93;8.05;;;77.10;2227.20;;;;;;5061255;28;20033;-74
2022/03/02 01:28:12;;;;;;;14.52;8.95;;;77.20;2227.20;;;;;;5059529;28;20025;-74
2022/03/02 01:30:38;;;;;;;13.48;8.18;;;77.10;2227.20;;;;;;5058472;28;20012;-75
2022/03/02 01:33:03;;;;;;;14.10;8.32;;;77.10;2227.20;;;;;;5064677;28;20039;-75
2022/03/02 01:35:29;;;;;;;14.35;8.13;;;77.00;2227.20;;;;;;5062720;28;20094;-74
2022/03/02 01:37:55;;;;;;;16.42;8.55;;;77.00;2227.20;;;;;;5059402;28;20049;-74
2022/03/02 01:40:21;;;;;;;14.90;8.85;;;77.00;2227.20;;;;;;5078053;28;20033;-74
2022/03/02 01:42:47;;;;;;;10.98;8.52;;;77.00;2227.20;;;;;;5062357;28;20036;-74
2022/03/02 01:45:14;;;;;;;13.30;8.13;;;77.00;2227.20;;;;;;5061449;28;20418;-75
2022/03/02 01:47:40;;;;;;;11.48;8.45;;;77.00;2227.20;;;;;;5063357;28;20510;-75
2022/03/02 01:50:09;;;;;;;16.35;8.80;;;76.90;2227.20;;;;;;5060779;28;20033;-74
2022/03/02 01:52:35;;;;;;;17.83;9.25;;;76.90;2227.20;;;;;;5060177;28;20021;-75
2022/03/02 01:55:02;;;;;;;15.27;8.70;;;76.90;2227.20;;;;;;5064451;28;20395;-75
2022/03/02 01:57:30;;;;;;;16.63;9.02;;;76.90;2227.20;;;;;;5062686;28;20100;-74
2022/03/02 02:00:11;;;;;;;14.68;8.60;;;76.90;2227.20;;;;;;5060635;28;20031;-74
2022/03/02 02:02:37;;;;;;;16.45;8.90;;;76.80;2227.20;;;;;;5060779;28;20027;-74
2022/03/02 02:05:04;;;;;;;17.23;10.70;;;76.80;2227.20;;;;;;5061186;28;20462;-74
2022/03/02 02:07:29;;;;;;;11.20;8.07;;;76.80;2227.20;;;;;;5083600;28;20111;-74
2022/03/02 02:09:59;;;;;;;19.58;9.93;;;76.80;2227.20;;;;;;5061519;28;20526;-75
2022/03/02 02:12:25;;;;;;;13.95;8.77;;;76.80;2227.20;;;;;;5060627;28;20021;-74
2022/03/02 02:14:51;;;;;;;16.95;10.50;;;76.80;2227.20;;;;;;5060320;28;20024;-74
2022/03/02 02:17:17;;;;;;;17.77;9.73;;;76.80;2227.20;;;;;;5061298;28;20050;-75
2022/03/02 02:19:43;;;;;;;19.25;9.38;;;52.10;2227.20;;;;;;5063350;28;20472;-74
2022/03/02 02:22:09;;;;;;;14.43;9.07;;;76.80;2227.20;;;;;;5061670;28;20104;-74
2022/03/02 02:24:35;;;;;;;13.52;8.88;;;52.10;2227.20;;;;;;5061282;28;20498;-75
2022/03/02 02:27:01;;;;;;;17.10;9.52;;;52.10;2227.20;;;;;;5063044;28;20032;-74
2022/03/02 02:29:32;;;;;;;14.55;8.27;;;52.10;2227.20;;;;;;5062026;28;20036;-74
2022/03/02 02:31:58;;;;;;;17.20;9.00;;;52.00;2227.20;;;;;;5065207;28;20028;-74
2022/03/02 02:34:24;;;;;;;17.65;8.55;;;52.00;2227.20;;;;;;5060336;28;20423;-74
2022/03/02 02:36:50;;;;;;;13.82;8.73;;;52.00;2227.20;;;;;;5062609;28;20087;-74
2022/03/02 02:39:16;;;;;;;19.17;10.20;;;51.90;2227.20;;;;;;5060873;28;20032;-74
2022/03/02 02:41:42;;;;;;;17.45;10.15;;;52.00;2227.20;;;;;;5059978;28;20055;-74
2022/03/02 02:44:08;;;;;;;16.73;8.98;;;51.90;2227.20;;;;;;5063083;28;20032;-74
2022/03/02 02:46:34;;;;;;;20.40;9.50;;;51.90;2227.20;;;;;;5063311;28;20029;-74
2022/03/02 02:49:00;;;;;;;14.88;9.65;;;51.90;2227.20;;;;;;5066041;28;20412;-74
2022/03/02 02:51:25;;;;;;;15.55;9.77;;;52.00;2227.20;;;;;;5069778;28;20079;-74
2022/03/02 02:53:51;;;;;;;16.40;9.15;;;52.00;2227.20;;;;;;5070924;28;20460;-74
2022/03/02 02:56:17;;;;;;;16.75;8.80;;;52.00;2227.20;;;;;;5071229;28;20048;-75
2022/03/02 02:58:43;;;;;;;14.63;10.27;;;51.90;2227.20;;;;;;5070324;28;20028;-74
2022/03/02 03:01:09;;;;;;;15.13;9.32;;;51.90;2227.20;;;;;;5071914;28;20039;-75
2022/03/02 03:03:35;;;;;;;16.63;8.77;;;51.90;2227.20;;;;;;5065919;28;20087;-75
2022/03/02 03:06:01;;;;;;;15.57;9.43;;;52.00;2227.20;;;;;;5066185;28;20029;-74
2022/03/02 03:08:26;;;;;;;22.00;10.52;;;51.90;2227.20;;;;;;5064352;28;20472;-74
2022/03/02 03:10:52;;;;;;;17.10;8.13;;;51.90;2227.20;;;;;;5064190;28;20033;-74
2022/03/02 03:13:18;;;;;;;20.08;10.55;;;51.90;2227.20;;;;;;5065761;28;20514;-75
2022/03/02 03:15:44;;;;;;;14.15;7.95;;;51.90;2227.20;;;;;;5063649;28;20124;-75
2022/03/02 03:18:10;;;;;;;17.02;9.63;;;51.90;2227.20;;;;;;5066100;28;20034;-75
2022/03/02 03:20:36;;;;;;;16.38;8.88;;;51.90;2227.20;;;;;;5066661;28;20025;-75
2022/03/02 03:23:03;;;;;;;18.77;9.25;;;51.90;2227.20;;;;;;5063041;28;20029;-74
2022/03/02 03:25:29;;;;;;;14.23;10.18;;;51.90;2227.20;;;;;;5065636;28;20035;-74
2022/03/02 03:27:55;;;;;;;17.77;10.13;;;51.90;2227.20;;;;;;5060043;28;20427;-74
2022/03/02 03:30:23;;;;;;;17.25;10.02;;;51.80;2227.20;;;;;;5066996;28;20025;-74
2022/03/02 03:32:52;;;;;;;16.73;9.23;;;51.90;2227.20;;;;;;5060788;28;20029;-74
2022/03/02 03:35:22;;;;;;;15.55;8.98;;;51.80;2227.20;;;;;;5063401;28;20044;-74
2022/03/02 03:37:48;;;;;;;17.13;9.00;;;51.70;2227.20;;;;;;5060713;28;20098;-75
2022/03/02 03:40:16;;;;;;;21.50;10.68;;;51.70;2227.20;;;;;;5068916;28;20032;-74
2022/03/02 03:42:44;;;;;;;16.08;9.38;;;51.70;2227.20;;;;;;5064661;28;20025;-74
2022/03/02 03:45:12;;;;;;;15.18;8.80;;;51.80;2227.20;;;;;;5056477;28;20081;-75
2022/03/02 03:47:38;;;;;;;17.88;8.73;;;51.90;2227.20;;;;;;5066031;28;20021;-75
2022/03/02 03:50:05;;;;;;;14.93;7.55;;;51.80;2227.20;;;;;;5066766;28;20033;-74
2022/03/02 03:52:30;;;;;;;12.98;8.50;;;51.80;2227.20;;;;;;5068024;28;20027;-74
2022/03/02 03:54:59;;;;;;;11.73;7.93;;;51.80;2227.20;;;;;;5066064;28;20017;-74
2022/03/02 03:57:28;;;;;;;16.88;9.00;;;51.70;2227.20;;;;;;5060409;28;20036;-74
2022/03/02 03:59:54;;;;;;;14.57;9.10;;;51.70;2227.20;;;;;;5064811;28;20028;-74
2022/03/02 04:02:20;;;;;;;14.23;9.05;;;51.70;2227.20;;;;;;5064913;28;20028;-75
2022/03/02 04:04:46;;;;;;;16.65;10.05;;;51.70;2227.20;;;;;;5064218;28;20039;-74
2022/03/02 04:07:20;;;;;;;15.07;8.48;;;51.60;2227.20;;;;;;5060651;28;20079;-74
2022/03/02 04:09:46;;;;;;;12.98;8.55;;;51.60;2227.20;;;;;;5064813;28;20025;-76
2022/03/02 04:12:11;;;;;;;15.20;9.07;;;51.60;2227.20;;;;;;5062430;28;20160;-73
2022/03/02 04:14:37;;;;;;;12.52;8.38;;;51.50;2227.20;;;;;;5063690;28;20036;-74
2022/03/02 04:17:03;;;;;;;14.10;9.32;;;51.50;2227.20;;;;;;5061860;28;20036;-74
2022/03/02 04:19:29;;;;;;;15.25;7.50;;;51.50;2227.20;;;;;;5064538;28;20020;-74
2022/03/02 04:21:55;;;;;;;18.10;8.73;;;51.40;2227.20;;;;;;5063985;28;20055;-74
2022/03/02 04:24:20;;;;;;;12.48;9.25;;;51.40;2227.20;;;;;;5060751;28;20543;-74
2022/03/02 04:26:46;;;;;;;20.63;8.45;;;51.40;2227.20;;;;;;5063856;28;20028;-74
2022/03/02 04:29:12;;;;;;;14.23;7.85;;;51.30;2227.20;;;;;;5064306;28;20101;-74
2022/03/02 04:31:37;;;;;;;18.10;9.02;;;51.30;2227.20;;;;;;5066052;28;20020;-74
2022/03/02 04:34:03;;;;;;;12.93;7.40;;;51.20;2227.20;;;;;;5062388;28;20119;-74
2022/03/02 04:36:29;;;;;;;17.63;8.40;;;51.20;2227.20;;;;;;5066699;28;20107;-74
2022/03/02 04:38:55;;;;;;;13.27;9.10;;;26.50;2201.60;;;;;;5045127;28;20767;-73
2022/03/02 04:41:23;;;;;;;13.23;8.75;;;26.40;2201.60;;;;;;5044209;28;20022;-74
2022/03/02 04:43:49;;;;;;;15.27;8.20;;;26.30;2201.60;;;;;;5043717;28;20812;-74
2022/03/02 04:46:14;;;;;;;17.33;9.15;;;26.30;2201.60;;;;;;5045448;28;20103;-74
2022/03/02 04:48:40;;;;;;;16.85;9.15;;;26.30;2201.60;;;;;;5042463;28;20075;-75
2022/03/02 04:51:06;;;;;;;17.73;8.52;;;26.30;2201.60;;;;;;5039699;28;20108;-75
2022/03/02 04:53:32;;;;;;;16.88;8.77;;;26.20;2201.60;;;;;;5040413;28;20743;-76
2022/03/02 04:55:57;;;;;;;15.63;8.70;;;26.20;2201.60;;;;;;5044855;28;20036;-75
2022/03/02 04:58:23;;;;;;;20.00;8.50;;;26.10;2201.60;;;;;;5040450;28;20585;-74
2022/03/02 05:00:49;;;;;;;15.07;8.95;;;26.10;2201.60;;;;;;5044777;28;20086;-74
2022/03/02 05:03:18;;;;;;;15.85;8.43;;;26.10;2201.60;;;;;;5043747;28;20104;-74
2022/03/02 05:05:46;;;;;;;14.38;8.27;;;26.10;2201.60;;;;;;5042357;28;20041;-74
2022/03/02 05:08:12;;;;;;;15.50;8.45;;;26.00;2201.60;;;;;;5060077;28;20038;-74
2022/03/02 05:10:38;;;;;;;38.53;11.45;;;26.00;2201.60;;;;;;5042690;28;20105;-74
2022/03/02 05:13:04;;;;;;;13.98;7.55;;;25.90;2201.60;;;;;;5039951;28;20083;-74
2022/03/02 05:15:31;;;;;;;13.10;7.65;;;25.80;2201.60;;;;;;5043288;28;20025;-75
2022/03/02 05:17:59;;;;;;;18.45;9.20;;;25.90;2201.60;;;;;;5045650;28;20029;-74
2022/03/02 05:20:25;;;;;;;19.65;9.57;;;25.90;2201.60;;;;;;5042424;28;20107;-74
2022/03/02 05:22:51;;;;;;;14.85;8.32;;;25.90;2201.60;;;;;;5044881;28;20044;-75
2022/03/02 05:25:20;;;;;;;16.88;9.57;;;25.90;2201.60;;;;;;5044764;28;20472;-75
2022/03/02 05:27:50;;;;;;;19.52;9.32;;;25.90;2201.60;;;;;;5042489;28;20025;-75
2022/03/02 05:30:20;;;;;;;17.52;9.02;;;25.90;2201.60;;;;;;5043451;28;20021;-74
2022/03/02 05:32:47;;;;;;;17.75;10.25;;;25.80;2201.60;;;;;;5044616;28;20029;-74
2022/03/02 05:35:13;;;;;;;23.20;12.88;;;25.80;2201.60;;;;;;5061231;28;20056;-74
2022/03/02 05:37:44;;;;;;;18.27;10.27;;;25.80;2201.60;;;;;;5050001;28;20092;-75
2022/03/02 05:40:15;;;;;;;23.83;13.23;;;25.70;2201.60;;;;;;5060931;28;20032;-74
2022/03/02 05:42:42;;;;;;;17.67;10.05;;;25.70;2201.60;;;;;;5061899;28;20480;-75
2022/03/02 05:45:14;;;;;;;18.85;10.73;;;25.70;2201.60;;;;;;5063084;28;20024;-81
2022/03/02 05:47:40;;;;;;;16.58;10.25;;;25.80;2201.60;;;;;;5061349;28;20040;-74
2022/03/02 05:50:08;;;;;;;18.10;9.98;;;25.70;2201.60;;;;;;5059531;28;20092;-74
2022/03/02 05:52:34;;;;;;;15.93;9.32;;;25.80;2201.60;;;;;;5061163;28;20035;-75
2022/03/02 05:55:01;;;;;;;21.50;12.13;;;25.70;2201.60;;;;;;5065056;28;20025;-75
2022/03/02 05:57:26;;;;;;;20.73;11.02;;;25.80;2201.60;;;;;;5062354;28;20032;-74
2022/03/02 05:59:52;;;;;;;21.85;11.52;;;25.70;2201.60;;;;;;5062658;28;20397;-74
2022/03/02 06:02:18;;;;;;;22.13;11.25;;;25.70;2201.60;;;;;;5061643;28;20075;-75
2022/03/02 06:04:44;;;;;;;20.92;11.40;;;25.70;2201.60;;;;;;5058541;28;20112;-74
2022/03/02 06:07:13;;;;;;;18.42;11.38;;;25.80;2201.60;;;;;;5060781;28;20036;-74
2022/03/02 06:09:39;;;;;;;21.95;12.52;;;25.80;2201.60;;;;;;5062735;28;20086;-75
2022/03/02 06:12:05;;;;;;;28.92;13.05;;;25.80;2201.60;;;;;;5063803;28;20940;-75
2022/03/02 06:14:32;;;;;;;28.05;15.35;;;25.80;2201.60;;;;;;5065414;28;20056;-74
2022/03/02 06:16:58;;;;;;;21.30;11.85;;;25.80;2201.60;;;;;;5058884;28;20048;-75
2022/03/02 06:19:24;;;;;;;30.48;12.35;;;25.80;2201.60;;;;;;5061029;28;20079;-74
2022/03/02 06:21:52;;;;;;;21.48;11.55;;;25.80;2201.60;;;;;;5064442;28;20725;-74
2022/03/02 06:24:18;;;;;;;23.45;12.65;;;25.80;2201.60;;;;;;5061215;28;20025;-74
2022/03/02 06:26:50;;;;;;;24.00;12.32;;;25.90;2201.60;;;;;;5061569;28;20032;-75
2022/03/02 06:29:16;;;;;;;27.10;14.10;;;25.90;2201.60;;;;;;5064413;28;20017;-74
2022/03/02 06:31:42;;;;;;;28.33;10.77;;;25.90;2201.60;;;;;;5063611;28;20036;-74
2022/03/02 06:34:07;;;;;;;23.67;11.15;;;25.90;2201.60;;;;;;5061070;28;20036;-74
2022/03/02 06:36:33;;;;;;;22.25;11.60;;;26.00;2201.60;;;;;;5058372;28;20139;-74
2022/03/02 06:38:59;;;;;;;18.73;9.85;;;26.10;2201.60;;;;;;5056933;28;20044;-74
2022/03/02 06:41:47;;;;;;;20.17;9.88;;;26.10;2201.60;;;;;;5063599;28;20048;-74
2022/03/02 06:44:27;;;;;;;20.13;11.00;;;26.20;2201.60;;;;;;5063571;28;20068;-74
2022/03/02 06:47:01;;;;;;;22.08;10.40;;;26.20;2201.60;;;;;;5064226;28;20058;-74
2022/03/02 06:49:45;;;;;;;23.33;11.70;;;26.20;2201.60;;;;;;5074062;28;20086;-74
2022/03/02 06:52:12;;;;;;;22.60;9.60;;;26.30;2201.60;;;;;;5068061;28;20048;-75
2022/03/02 06:54:42;;;;;;;18.95;10.85;;;26.20;2201.60;;;;;;5061002;28;20388;-74
2022/03/02 06:57:12;;;;;;;23.02;11.27;;;26.20;2201.60;;;;;;5067632;28;20040;-74
2022/03/02 06:59:41;;;;;;;16.13;9.85;;;26.30;2201.60;;;;;;5067555;28;20124;-74
2022/03/02 07:02:08;;;;;;;23.52;10.88;;;26.40;2201.60;;;;;;5064298;28;20094;-74
2022/03/02 07:04:47;;;;;;;18.77;10.82;;;26.50;2201.60;;;;;;5059271;28;20029;-74
2022/03/02 07:07:16;;;;;;;19.52;10.63;;;26.50;2201.60;;;;;;5058471;28;20060;-74
2022/03/02 07:09:42;;;;;;;19.90;11.23;;;51.20;2227.20;;;;;;5058293;28;20029;-74
2022/03/02 07:12:11;;;;;;;18.30;9.80;;;51.20;2227.20;;;;;;5061610;28;20021;-75
2022/03/02 07:14:38;;;;;;;23.25;10.38;;;51.20;2227.20;;;;;;5060212;28;20030;-75
2022/03/02 07:17:07;;;;;;;16.00;8.82;;;51.30;2227.20;;;;;;5065647;28;20040;-74
2022/03/02 07:19:32;;;;;;;15.75;8.95;;;51.40;2227.20;;;;;;5060686;28;20037;-75
2022/03/02 07:22:07;;;;;;;18.88;9.52;;;51.50;2227.20;;;;;;5061065;28;20033;-74
2022/03/02 07:24:39;;;;;;;19.52;9.02;;;51.60;2227.20;;;;;;5064339;28;20033;-75
2022/03/02 07:27:05;;;;;;;15.13;8.82;;;51.60;2227.20;;;;;;5062172;28;20472;-75
2022/03/02 07:29:37;;;;;;;16.95;10.10;;;51.70;2227.20;;;;;;5062916;28;20025;-74
2022/03/02 07:32:04;;;;;;;15.93;9.75;;;51.80;2227.20;;;;;;5061204;28;20119;-75
2022/03/02 07:34:31;;;;;;;24.63;12.65;;;52.00;2227.20;;;;;;5065859;28;20119;-76
2022/03/02 07:37:00;;;;;;;18.17;9.45;;;52.10;2227.20;;;;;;5067805;28;20044;-74
2022/03/02 07:39:27;;;;;;;17.05;8.63;;;76.80;2227.20;;;;;;5062625;28;20032;-74
2022/03/02 07:41:56;;;;;;;15.95;9.95;;;76.90;2227.20;;;;;;5060524;28;20059;-74
2022/03/02 07:44:22;;;;;;;13.45;7.80;;;77.00;2227.20;;;;;;5060850;28;20033;-75
2022/03/02 07:46:48;;;;;;;14.43;8.88;;;77.00;2227.20;;;;;;5065779;28;20039;-75
2022/03/02 07:49:14;;;;;;;14.80;9.80;;;77.10;2227.20;;;;;;5066185;28;20028;-75
2022/03/02 07:51:40;;;;;;;17.52;9.50;;;77.30;2227.20;;;;;;5070220;28;20037;-74
2022/03/02 07:54:06;;;;;;;15.98;9.13;;;77.40;2227.20;;;;;;5060267;28;20491;-76
2022/03/02 07:56:33;;;;;;;15.07;9.38;;;77.70;2227.20;;;;;;5060640;28;20025;-74
2022/03/02 07:59:05;;;;;;;18.92;9.13;;;77.70;2227.20;;;;;;5060746;28;20468;-76
2022/03/02 08:01:34;;;;;;;15.77;9.75;;;102.60;2227.20;;;;;;5064642;28;20024;-76
2022/03/02 08:04:06;;;;;;;17.58;8.77;;;102.80;2227.20;;;;;;5064778;28;20102;-77
2022/03/02 08:06:39;;;;;;;19.35;9.15;;;102.80;2227.20;;;;;;5062313;28;20099;-76
2022/03/02 08:09:11;;;;;;;17.80;9.50;;;102.80;2227.20;;;;;;5062426;28;20106;-76
2022/03/02 08:11:38;;;;;;;15.32;8.65;;;102.90;2227.20;;;;;;5062959;28;20393;-76
2022/03/02 08:14:10;;;;;;;12.57;8.90;;;103.10;2227.20;;;;;;5067584;28;20020;-77
2022/03/02 08:16:39;;;;;;;15.65;9.00;;;103.20;2227.20;;;;;;5069102;28;20013;-77
2022/03/02 08:19:08;;;;;;;15.98;9.82;;;128.10;2252.80;;;;;;5072074;28;20028;-77
2022/03/02 08:21:36;;;;;;;13.32;8.52;;;128.20;2252.80;;;;;;5067133;28;20025;-77
2022/03/02 08:24:06;;;;;;;15.48;8.65;;;128.10;2252.80;;;;;;5060736;28;20402;-76
2022/03/02 08:26:36;;;;;;;16.48;8.70;;;128.30;2252.80;;;;;;5064495;28;20051;-77
2022/03/02 08:29:04;;;;;;;18.08;10.40;;;128.30;2252.80;;;;;;5065739;28;20071;-76
2022/03/02 08:31:31;;;;;;;18.90;10.25;;;128.50;2252.80;;;;;;5062996;28;20029;-75
2022/03/02 08:33:59;;;;;;;18.52;9.13;;;128.80;2252.80;;;;;;5067296;28;20036;-75
2022/03/02 08:36:29;;;;;;;25.17;11.45;;;153.70;2252.80;;;;;;5062699;28;20408;-75
2022/03/02 08:38:55;;;;;;;16.35;9.93;;;153.80;2252.80;;;;;;5063211;28;20064;-75
2022/03/02 08:41:21;;;;;;;22.30;11.30;;;154.00;2252.80;;;;;;5071294;28;20040;-74
2022/03/02 08:43:50;;;;;;;14.43;9.07;;;154.10;2252.80;;;;;;5062420;28;20119;-76
2022/03/02 08:46:16;;;;;;;13.18;9.75;;;154.30;2252.80;;;;;;5065003;28;20372;-74
2022/03/02 08:48:44;;;;;;;13.88;9.23;;;154.30;2252.80;;;;;;5061523;28;20033;-74
2022/03/02 08:51:10;;;;;;;24.25;11.25;;;154.40;2252.80;;;;;;5060341;28;20072;-74
2022/03/02 08:53:39;;;;;;;22.33;10.70;;;179.20;2252.80;;;;;;5062829;28;20029;-73
2022/03/02 08:56:06;;;;;;;22.20;10.25;;;154.50;2252.80;;;;;;5060662;28;20106;-73
2022/03/02 08:58:32;;;;;;;20.88;11.43;;;179.30;2252.80;;;;;;5059796;28;20028;-73
2022/03/02 09:01:02;;;;;;;19.05;11.50;;;179.40;2252.80;;;;;;5061378;28;20043;-74
2022/03/02 09:03:32;;;;;;;24.20;11.07;;;179.70;2252.80;;;;;;5066686;28;20024;-74
2022/03/02 09:05:58;;;;;;;19.42;11.43;;;180.00;2227.20;;;;;;5065468;28;20091;-73
2022/03/02 09:08:24;;;;;;;17.88;8.85;;;180.10;2150.40;;;;;;5068256;28;20440;-73
2022/03/02 09:10:50;;;;;;;20.73;9.75;;;204.80;2048.00;;;;;;5058556;28;20043;-74
2022/03/02 09:13:16;;;;;;;21.98;8.95;;;205.00;2073.60;;;;;;5069819;28;20479;-74
2022/03/02 09:15:41;;;;;;;13.00;8.80;;;205.20;2048.00;;;;;;5062817;28;20059;-73
2022/03/02 09:18:11;;;;;;;13.70;8.68;;;204.90;2022.40;;;;;;5065945;28;20037;-74
2022/03/02 09:20:40;;;;;;;20.70;10.57;;;205.00;2048.00;;;;;;5066766;28;20024;-73
2022/03/02 09:23:06;;;;;;;14.65;9.35;;;205.10;2022.40;;;;;;5064300;28;20499;-73
2022/03/02 09:25:38;;;;;;;26.00;12.02;;;205.30;1945.60;;;;;;5057485;28;20028;-74
2022/03/02 09:28:05;;;;;;;18.63;10.35;;;205.40;1971.20;;;;;;5065123;28;20499;-74
2022/03/02 09:30:31;;;;;;;19.08;10.27;;;205.50;1894.40;;;;;;5060469;28;20487;-75
2022/03/02 09:33:05;;;;;;;20.40;15.05;;;230.50;1868.80;;;;;;5058978;28;20052;-74
2022/03/02 09:35:32;;;;;;;15.30;8.55;;;230.50;1868.80;;;;;;5061358;28;20123;-75
2022/03/02 09:37:59;;;;;;;13.18;8.60;;;205.70;1843.20;;;;;;5059878;28;20118;-75
2022/03/02 09:40:35;;;;;;;13.93;8.38;;;230.70;1868.80;;;;;;5061311;28;20036;-74
2022/03/02 09:43:07;;;;;;;12.88;8.82;;;231.00;1766.40;;;;;;5061256;28;20094;-75
2022/03/02 09:45:34;;;;;;;22.48;8.63;;;231.00;1740.80;;;;;;5065149;28;20111;-75
2022/03/02 09:48:14;;;;;;;15.07;8.40;;;230.70;1766.40;;;;;;5060782;28;20429;-74
2022/03/02 09:50:47;;;;;;;11.98;8.20;;;231.20;1715.20;;;;;;5058429;28;20034;-75
2022/03/02 09:53:14;;;;;;;10.77;7.57;;;231.20;1664.00;;;;;;5062001;28;20036;-76
2022/03/02 09:55:43;;;;;;;16.38;8.32;;;231.20;1689.60;;;;;;5061245;28;20071;-74
2022/03/02 09:58:14;;;;;;;15.35;8.60;;;231.30;1689.60;;;;;;5064914;28;20021;-75
2022/03/02 10:00:46;;;;;;;13.63;8.20;;;256.20;1689.60;;;;;;5061632;28;20544;-75
2022/03/02 10:03:18;;;;;;;12.15;8.32;;;256.20;1664.00;;;;;;5061905;28;20033;-76
2022/03/02 10:05:50;;;;;;;15.35;8.48;;;256.00;1689.60;;;;;;5059464;28;20147;-76
2022/03/02 10:08:19;;;;;;;14.77;8.90;;;256.10;1715.20;;;;;;5059324;28;20124;-75
2022/03/02 10:10:48;;;;;;;14.30;7.88;;;256.50;1638.40;;;;;;5057708;28;20064;-75
2022/03/02 10:13:16;;;;;;;23.45;8.70;;;256.50;1638.40;;;;;;5057157;28;20047;-76
2022/03/02 10:15:45;;;;;;;11.10;8.57;;;256.90;1612.80;;;;;;5063157;28;20028;-77
2022/03/02 10:18:16;;;;;;;15.30;8.48;;;281.60;1612.80;;;;;;5065684;28;20067;-76
2022/03/02 10:20:49;;;;;;;12.07;7.63;;;256.70;1587.20;;;;;;5059787;28;20029;-75
2022/03/02 10:23:34;;;;;;;13.90;9.20;;;281.70;1612.80;;;;;;5056993;28;20104;-76
2022/03/02 10:26:09;;;;;;;14.18;9.25;;;281.70;1587.20;;;;;;5059878;28;20032;-76
2022/03/02 10:29:05;;;;;;;16.05;7.60;;;282.20;1587.20;;;;;;5055295;28;20047;-77
2022/03/02 10:31:46;;;;;;;14.65;9.07;;;282.50;1561.60;;;;;;5068653;28;20108;-76
2022/03/02 10:34:31;;;;;;;21.70;10.82;;;307.50;1536.00;;;;;;5063360;28;20063;-76
2022/03/02 10:37:00;;;;;;;18.75;9.15;;;307.60;1561.60;;;;;;5061771;28;20024;-77
2022/03/02 10:39:34;;;;;;;15.07;9.02;;;307.30;1536.00;;;;;;5061458;28;20025;-76
2022/03/02 10:42:05;;;;;;;18.75;9.30;;;282.40;1536.00;;;;;;5068771;28;20422;-75
2022/03/02 10:44:52;;;;;;;13.13;8.52;;;307.20;1587.20;;;;;;5069226;28;20387;-76
2022/03/02 10:47:21;;;;;;;16.80;9.85;;;307.20;1561.60;;;;;;5066419;28;20056;-76
2022/03/02 10:49:48;;;;;;;12.38;8.43;;;307.80;1510.40;;;;;;5063721;28;20060;-75
2022/03/02 10:52:14;;;;;;;17.90;9.02;;;307.90;1510.40;;;;;;5064661;28;20388;-76
2022/03/02 10:54:41;;;;;;;11.60;6.97;;;333.00;1510.40;;;;;;5067501;28;20111;-76
2022/03/02 10:57:11;;;;;;;13.75;8.45;;;308.10;1484.80;;;;;;5064304;28;20120;-75
2022/03/02 10:59:42;;;;;;;12.60;7.57;;;333.00;1510.40;;;;;;5063813;28;20039;-76
2022/03/02 11:02:10;;;;;;;11.02;7.25;;;333.00;1459.20;;;;;;5063679;28;20139;-76
2022/03/02 11:04:42;;;;;;;15.32;8.55;;;333.00;1459.20;;;;;;5066494;28;20039;-76
2022/03/02 11:07:08;;;;;;;13.10;8.77;;;332.90;1459.20;;;;;;5062359;28;20023;-74
2022/03/02 11:09:34;;;;;;;13.35;8.63;;;332.90;1484.80;;;;;;5076246;28;20101;-77
2022/03/02 11:12:01;;;;;;;16.20;8.80;;;333.20;1484.80;;;;;;5090501;28;20500;-76
2022/03/02 11:14:27;;;;;;;15.43;7.88;;;333.20;1459.20;;;;;;5082947;28;20077;-74
2022/03/02 11:17:13;;;;;;;13.73;9.27;;;333.70;1433.60;;;;;;5068425;28;20041;-72
2022/03/02 11:19:46;;;;;;;11.55;7.45;;;358.60;1382.40;;;;;;5070188;28;20024;-74
2022/03/02 11:22:16;;;;;;;17.52;9.73;;;358.70;1382.40;;;;;;5070226;28;20075;-73
2022/03/02 11:24:42;;;;;;;11.20;7.57;;;359.20;1356.80;;;;;;5062002;28;20029;-74
2022/03/02 11:27:24;;;;;;;12.75;8.65;;;359.10;1382.40;;;;;;5081192;28;20032;-76
2022/03/02 11:30:00;;;;;;;11.85;8.75;;;384.00;1356.80;;;;;;5086160;28;20025;-76
2022/03/02 11:32:28;;;;;;;12.68;7.72;;;384.10;1331.20;;;;;;5067816;28;20025;-78
2022/03/02 11:34:57;;;;;;;10.88;7.75;;;359.10;1356.80;;;;;;5058219;28;20037;-77
2022/03/02 11:37:24;;;;;;;10.32;8.18;;;384.00;1305.60;;;;;;5065125;28;20044;-79
2022/03/02 11:39:50;;;;;;;12.02;7.57;;;359.10;1331.20;;;;;;5079561;28;20356;-76
2022/03/02 11:42:17;;;;;;;10.55;7.15;;;384.30;1280.00;;;;;;5061643;28;20157;-74
2022/03/02 11:44:44;;;;;;;13.13;8.40;;;409.70;1280.00;;;;;;5073669;28;20016;-74
2022/03/02 11:47:15;;;;;;;10.02;7.22;;;384.60;1254.40;;;;;;5073576;28;20028;-74
2022/03/02 11:49:46;;;;;;;12.05;7.25;;;384.30;1280.00;;;;;;5074321;28;20051;-74
2022/03/02 11:52:14;;;;;;;16.08;9.55;;;384.50;1254.40;;;;;;5073789;28;20024;-74
2022/03/02 11:54:45;;;;;;;10.98;6.88;;;359.20;1305.60;;;;;;5089792;28;20387;-74
2022/03/02 11:57:16;;;;;;;12.80;8.02;;;384.20;1254.40;;;;;;5068855;28;20040;-75
2022/03/02 11:59:42;;;;;;;11.05;7.32;;;384.50;1228.80;;;;;;5055596;28;20029;-75
2022/03/02 12:02:16;;;;;;;10.82;7.07;;;384.70;1228.80;;;;;;5069250;28;20048;-75
2022/03/02 12:05:03;;;;;;;11.77;7.28;;;384.10;1280.00;;;;;;5063702;28;20075;-75
2022/03/02 12:07:37;;;;;;;9.45;6.25;;;358.90;1305.60;;;;;;5065548;28;20442;-76
2022/03/02 12:10:03;;;;;;;11.95;7.82;;;384.10;1305.60;;;;;;5073483;28;20020;-75
2022/03/02 12:12:42;;;;;;;12.05;7.07;;;384.90;1228.80;;;;;;5057342;28;20033;-76
2022/03/02 12:15:08;;;;;;;13.35;7.80;;;384.40;1280.00;;;;;;5062835;28;20108;-75